Ashland, Missouri
Current Conditions -  °F | °C
As of 8:13 AM on Wednesday 26 Nov 2014 (Local Time) from KCOU Reporting Station
Light Snow Light Snow  
Wind Chill: 26°   Ceiling: 2400
Heat Index: 32°   Visibility: 2mi
Dew Point: 25°   Wind: 7mph
Humidity: 75%   Direction: 170°S
Pressure: 29.96"   Gusts: NA
Location:  38.77°N, 92.26°W
Report Text: KCOU 261413Z 17006KT 2SM -SN OVC024 00/M04 A2996 RMK AO2 SNB1355 P0001 T00001039
Loading
Personal Weather Stations






























Interactive Weather Map New forecast layout! Learn more

10-Day Weather Forecast

Advertisements
Track Severe Weather on mobile